Terminal Aerodrome Forecast
Issued by NWS

Home | Current Version | Previous Version | Graphics & Text | Print | Product List | Glossary On
Versions: 1 2 3 4 5 6 7 8 9 10 11 12
000
FTUS43 KABR 251728
TAFPIR
TAF
KPIR 251728Z 2518/2618 31030G40KT P6SM SKC
     FM252300 32018G27KT P6SM SKC
     FM260200 30009KT P6SM SKC
     FM261600 31015G22KT P6SM SKC=

USA.gov is the U.S. government's official web portal to all federal, state and local government web resources and services.